10°C Temp
'.PHP_EOL;
9°C Dauwpunt
94% Vochtigheid
Temperatuur
14 KM/H
9 MPH
8 KTS
190°
Het Zuiden

Wind Snelheid
Mist
Mist
Luchtdruk 1028.91 (hPa)- 30.38 (in)
Zicht 2.2 (mi) - 3.5 (km)

Huidig weer
EHKD
Locatie 34(km)
Metar:
EHKD 221155Z AUTO 19008KT 160V230 3500 R21/P3000U BR BKN006 10/09 Q1029 YLO 20007KT 2500 BR BKN005 BECMG 6000 SCT007
Fri 22nd March 12:55 pm

Vliegveld
  Metar Aviation API Data Provided by https://www.checkwx.com/ Icons created by weather34.com